sensor_id;sensor_type;location;lat;lon;timestamp;temperature;humidity
22442;DHT22;11388;54.456;9.752;2023-07-02T00:08:05;17.30;99.90
22442;DHT22;11388;54.456;9.752;2023-07-02T00:45:46;17.20;99.90
22442;DHT22;11388;54.456;9.752;2023-07-02T00:58:27;17.20;99.90
22442;DHT22;11388;54.456;9.752;2023-07-02T01:00:58;17.20;99.90
22442;DHT22;11388;54.456;9.752;2023-07-02T01:06:56;17.20;99.90
22442;DHT22;11388;54.456;9.752;2023-07-02T01:13:12;17.10;99.90
22442;DHT22;11388;54.456;9.752;2023-07-02T01:16:06;17.20;99.90
22442;DHT22;11388;54.456;9.752;2023-07-02T01:22:12;17.20;99.90
22442;DHT22;11388;54.456;9.752;2023-07-02T01:28:49;17.10;99.90
22442;DHT22;11388;54.456;9.752;2023-07-02T01:31:32;17.10;99.90
22442;DHT22;11388;54.456;9.752;2023-07-02T01:34:15;17.10;99.90
22442;DHT22;11388;54.456;9.752;2023-07-02T01:37:16;17.00;99.90
22442;DHT22;11388;54.456;9.752;2023-07-02T01:40:46;16.90;99.90
22442;DHT22;11388;54.456;9.752;2023-07-02T01:46:40;16.90;99.90
22442;DHT22;11388;54.456;9.752;2023-07-02T01:52:31;16.90;99.90
22442;DHT22;11388;54.456;9.752;2023-07-02T01:55:23;16.80;99.90
22442;DHT22;11388;54.456;9.752;2023-07-02T01:58:15;16.70;99.90
22442;DHT22;11388;54.456;9.752;2023-07-02T02:08:00;16.90;99.90
22442;DHT22;11388;54.456;9.752;2023-07-02T02:17:32;16.70;99.90
22442;DHT22;11388;54.456;9.752;2023-07-02T03:58:07;16.20;99.90
22442;DHT22;11388;54.456;9.752;2023-07-02T04:04:46;16.30;99.90
22442;DHT22;11388;54.456;9.752;2023-07-02T04:21:18;15.60;99.90
22442;DHT22;11388;54.456;9.752;2023-07-02T04:24:15;15.70;99.90
22442;DHT22;11388;54.456;9.752;2023-07-02T04:37:21;16.00;99.90
22442;DHT22;11388;54.456;9.752;2023-07-02T04:40:07;15.90;99.90
22442;DHT22;11388;54.456;9.752;2023-07-02T04:43:00;15.90;99.90
22442;DHT22;11388;54.456;9.752;2023-07-02T04:52:02;16.10;99.90
22442;DHT22;11388;54.456;9.752;2023-07-02T04:54:48;16.20;99.90
22442;DHT22;11388;54.456;9.752;2023-07-02T04:57:51;16.10;99.90
22442;DHT22;11388;54.456;9.752;2023-07-02T05:07:09;16.20;99.90
22442;DHT22;11388;54.456;9.752;2023-07-02T05:10:03;16.20;99.90
22442;DHT22;11388;54.456;9.752;2023-07-02T05:26:23;16.70;99.90
22442;DHT22;11388;54.456;9.752;2023-07-02T05:35:11;16.60;99.90
22442;DHT22;11388;54.456;9.752;2023-07-02T05:46:29;16.40;99.90
22442;DHT22;11388;54.456;9.752;2023-07-02T05:48:54;16.50;99.90
22442;DHT22;11388;54.456;9.752;2023-07-02T05:51:24;16.50;99.90
22442;DHT22;11388;54.456;9.752;2023-07-02T05:53:50;16.70;99.90
22442;DHT22;11388;54.456;9.752;2023-07-02T05:56:16;16.70;99.90
22442;DHT22;11388;54.456;9.752;2023-07-02T05:58:49;16.80;99.90
22442;DHT22;11388;54.456;9.752;2023-07-02T06:01:15;17.00;99.90
22442;DHT22;11388;54.456;9.752;2023-07-02T06:03:42;17.10;99.90
22442;DHT22;11388;54.456;9.752;2023-07-02T06:06:09;17.00;99.90
22442;DHT22;11388;54.456;9.752;2023-07-02T06:08:34;16.90;99.90
22442;DHT22;11388;54.456;9.752;2023-07-02T06:11:00;16.80;99.90
22442;DHT22;11388;54.456;9.752;2023-07-02T06:13:26;16.40;99.90
22442;DHT22;11388;54.456;9.752;2023-07-02T06:16:16;16.00;99.90
22442;DHT22;11388;54.456;9.752;2023-07-02T06:18:45;16.10;99.90
22442;DHT22;11388;54.456;9.752;2023-07-02T06:21:11;15.90;99.90
22442;DHT22;11388;54.456;9.752;2023-07-02T06:23:43;15.90;99.90
22442;DHT22;11388;54.456;9.752;2023-07-02T06:28:35;15.60;99.90
22442;DHT22;11388;54.456;9.752;2023-07-02T06:31:01;15.60;99.90
22442;DHT22;11388;54.456;9.752;2023-07-02T06:33:39;15.50;99.90
22442;DHT22;11388;54.456;9.752;2023-07-02T06:36:06;15.40;99.90
22442;DHT22;11388;54.456;9.752;2023-07-02T06:38:31;15.50;99.90
22442;DHT22;11388;54.456;9.752;2023-07-02T06:40:57;15.50;99.90
22442;DHT22;11388;54.456;9.752;2023-07-02T06:43:23;15.50;99.90
22442;DHT22;11388;54.456;9.752;2023-07-02T06:45:48;15.70;99.90
22442;DHT22;11388;54.456;9.752;2023-07-02T06:48:14;15.90;99.90
22442;DHT22;11388;54.456;9.752;2023-07-02T06:50:46;16.10;99.90
22442;DHT22;11388;54.456;9.752;2023-07-02T06:53:12;16.20;99.90
22442;DHT22;11388;54.456;9.752;2023-07-02T06:59:01;16.80;99.90
22442;DHT22;11388;54.456;9.752;2023-07-02T07:01:26;16.50;99.90
22442;DHT22;11388;54.456;9.752;2023-07-02T07:03:52;16.20;99.90
22442;DHT22;11388;54.456;9.752;2023-07-02T07:06:18;16.00;99.90
22442;DHT22;11388;54.456;9.752;2023-07-02T07:08:43;16.10;99.90
22442;DHT22;11388;54.456;9.752;2023-07-02T07:11:12;16.10;99.90
22442;DHT22;11388;54.456;9.752;2023-07-02T07:14:02;16.10;99.90
22442;DHT22;11388;54.456;9.752;2023-07-02T07:18:54;16.30;99.90
22442;DHT22;11388;54.456;9.752;2023-07-02T07:21:20;16.40;99.90
22442;DHT22;11388;54.456;9.752;2023-07-02T07:23:52;16.60;99.90
22442;DHT22;11388;54.456;9.752;2023-07-02T07:26:17;16.60;99.90
22442;DHT22;11388;54.456;9.752;2023-07-02T07:28:43;16.80;99.90
22442;DHT22;11388;54.456;9.752;2023-07-02T07:31:34;16.90;99.90
22442;DHT22;11388;54.456;9.752;2023-07-02T07:33:59;17.00;99.90
22442;DHT22;11388;54.456;9.752;2023-07-02T07:37:02;17.00;99.90
22442;DHT22;11388;54.456;9.752;2023-07-02T07:39:30;17.00;99.90
22442;DHT22;11388;54.456;9.752;2023-07-02T07:41:56;17.20;99.90
22442;DHT22;11388;54.456;9.752;2023-07-02T07:44:21;17.30;99.90
22442;DHT22;11388;54.456;9.752;2023-07-02T07:46:49;17.60;99.90
22442;DHT22;11388;54.456;9.752;2023-07-02T07:49:14;17.90;99.90
22442;DHT22;11388;54.456;9.752;2023-07-02T07:51:41;17.60;99.90
22442;DHT22;11388;54.456;9.752;2023-07-02T07:54:32;16.00;99.90
22442;DHT22;11388;54.456;9.752;2023-07-02T07:56:58;15.30;99.90
22442;DHT22;11388;54.456;9.752;2023-07-02T07:59:24;14.90;99.90
22442;DHT22;11388;54.456;9.752;2023-07-02T08:01:49;15.00;99.90
22442;DHT22;11388;54.456;9.752;2023-07-02T08:04:15;14.80;99.90
22442;DHT22;11388;54.456;9.752;2023-07-02T08:06:41;14.70;99.90
22442;DHT22;11388;54.456;9.752;2023-07-02T08:09:06;14.80;99.90
22442;DHT22;11388;54.456;9.752;2023-07-02T08:12:03;15.20;99.90
22442;DHT22;11388;54.456;9.752;2023-07-02T08:14:29;15.50;99.90
22442;DHT22;11388;54.456;9.752;2023-07-02T08:16:55;15.70;99.90
22442;DHT22;11388;54.456;9.752;2023-07-02T08:19:21;15.90;99.90
22442;DHT22;11388;54.456;9.752;2023-07-02T08:21:47;15.90;99.90
22442;DHT22;11388;54.456;9.752;2023-07-02T08:24:13;16.10;99.90
22442;DHT22;11388;54.456;9.752;2023-07-02T08:26:39;16.20;99.90
22442;DHT22;11388;54.456;9.752;2023-07-02T08:29:33;16.30;99.90
22442;DHT22;11388;54.456;9.752;2023-07-02T08:31:59;16.40;99.90
22442;DHT22;11388;54.456;9.752;2023-07-02T08:39:55;17.00;99.90
22442;DHT22;11388;54.456;9.752;2023-07-02T08:42:21;17.10;99.90
22442;DHT22;11388;54.456;9.752;2023-07-02T08:44:47;17.20;99.90
22442;DHT22;11388;54.456;9.752;2023-07-02T08:47:13;17.40;99.90
22442;DHT22;11388;54.456;9.752;2023-07-02T08:49:39;17.50;99.90
22442;DHT22;11388;54.456;9.752;2023-07-02T08:54:36;17.70;99.90
22442;DHT22;11388;54.456;9.752;2023-07-02T08:57:03;17.90;99.90
22442;DHT22;11388;54.456;9.752;2023-07-02T08:59:31;17.70;99.90
22442;DHT22;11388;54.456;9.752;2023-07-02T09:01:56;17.70;99.90
22442;DHT22;11388;54.456;9.752;2023-07-02T09:04:24;17.80;99.90
22442;DHT22;11388;54.456;9.752;2023-07-02T09:07:02;17.90;99.90
22442;DHT22;11388;54.456;9.752;2023-07-02T09:09:47;17.90;99.90
22442;DHT22;11388;54.456;9.752;2023-07-02T09:14:57;18.20;99.90
22442;DHT22;11388;54.456;9.752;2023-07-02T09:17:31;18.20;99.90
22442;DHT22;11388;54.456;9.752;2023-07-02T09:19:58;18.30;99.90
22442;DHT22;11388;54.456;9.752;2023-07-02T09:22:27;18.50;99.90
22442;DHT22;11388;54.456;9.752;2023-07-02T09:24:55;18.40;99.90
22442;DHT22;11388;54.456;9.752;2023-07-02T09:27:37;18.00;99.90
22442;DHT22;11388;54.456;9.752;2023-07-02T09:30:25;17.70;99.90
22442;DHT22;11388;54.456;9.752;2023-07-02T09:36:18;16.90;99.90
22442;DHT22;11388;54.456;9.752;2023-07-02T09:38:44;17.00;99.90
22442;DHT22;11388;54.456;9.752;2023-07-02T09:41:10;17.00;99.90
22442;DHT22;11388;54.456;9.752;2023-07-02T09:43:39;17.10;99.90
22442;DHT22;11388;54.456;9.752;2023-07-02T09:46:06;17.40;99.90
22442;DHT22;11388;54.456;9.752;2023-07-02T09:51:54;17.80;99.90
22442;DHT22;11388;54.456;9.752;2023-07-02T09:54:20;18.10;99.90
22442;DHT22;11388;54.456;9.752;2023-07-02T09:56:49;18.20;99.90
22442;DHT22;11388;54.456;9.752;2023-07-02T09:59:15;18.40;99.90
22442;DHT22;11388;54.456;9.752;2023-07-02T10:01:41;18.40;99.90
22442;DHT22;11388;54.456;9.752;2023-07-02T10:04:13;18.40;99.90
22442;DHT22;11388;54.456;9.752;2023-07-02T10:12:27;18.40;99.90
22442;DHT22;11388;54.456;9.752;2023-07-02T10:14:55;18.60;99.90
22442;DHT22;11388;54.456;9.752;2023-07-02T10:19:58;18.70;99.90
22442;DHT22;11388;54.456;9.752;2023-07-02T10:22:24;18.80;99.90
22442;DHT22;11388;54.456;9.752;2023-07-02T10:28:21;19.10;99.90
22442;DHT22;11388;54.456;9.752;2023-07-02T10:30:52;19.00;99.90
22442;DHT22;11388;54.456;9.752;2023-07-02T10:33:27;19.00;99.90
22442;DHT22;11388;54.456;9.752;2023-07-02T10:35:53;18.80;99.90
22442;DHT22;11388;54.456;9.752;2023-07-02T10:38:23;18.90;99.90
22442;DHT22;11388;54.456;9.752;2023-07-02T10:41:00;19.00;99.90
22442;DHT22;11388;54.456;9.752;2023-07-02T10:43:29;19.10;99.90
22442;DHT22;11388;54.456;9.752;2023-07-02T10:45:56;19.10;99.90
22442;DHT22;11388;54.456;9.752;2023-07-02T10:48:22;19.20;99.90
22442;DHT22;11388;54.456;9.752;2023-07-02T10:50:48;18.90;99.90
22442;DHT22;11388;54.456;9.752;2023-07-02T10:53:20;18.70;99.90
22442;DHT22;11388;54.456;9.752;2023-07-02T10:55:56;18.60;99.90
22442;DHT22;11388;54.456;9.752;2023-07-02T10:58:23;18.40;99.90
22442;DHT22;11388;54.456;9.752;2023-07-02T11:00:50;18.50;99.90
22442;DHT22;11388;54.456;9.752;2023-07-02T11:03:21;18.60;99.90
22442;DHT22;11388;54.456;9.752;2023-07-02T11:05:50;18.50;99.90
22442;DHT22;11388;54.456;9.752;2023-07-02T11:08:19;18.40;99.90
22442;DHT22;11388;54.456;9.752;2023-07-02T11:11:07;18.50;99.90
22442;DHT22;11388;54.456;9.752;2023-07-02T11:13:44;18.50;99.90
22442;DHT22;11388;54.456;9.752;2023-07-02T11:16:24;18.80;99.90
22442;DHT22;11388;54.456;9.752;2023-07-02T11:19:07;19.10;99.90
22442;DHT22;11388;54.456;9.752;2023-07-02T11:21:35;19.20;99.90
22442;DHT22;11388;54.456;9.752;2023-07-02T11:24:32;19.00;99.90
22442;DHT22;11388;54.456;9.752;2023-07-02T11:30:52;18.20;99.90
22442;DHT22;11388;54.456;9.752;2023-07-02T11:33:18;18.00;99.90
22442;DHT22;11388;54.456;9.752;2023-07-02T11:35:52;18.20;99.90
22442;DHT22;11388;54.456;9.752;2023-07-02T11:38:18;18.60;99.90
22442;DHT22;11388;54.456;9.752;2023-07-02T11:40:52;18.70;99.90
22442;DHT22;11388;54.456;9.752;2023-07-02T11:43:24;19.00;99.90
22442;DHT22;11388;54.456;9.752;2023-07-02T11:46:09;19.20;99.90
22442;DHT22;11388;54.456;9.752;2023-07-02T11:48:34;19.40;99.90
22442;DHT22;11388;54.456;9.752;2023-07-02T11:51:00;19.40;99.90
22442;DHT22;11388;54.456;9.752;2023-07-02T11:53:28;19.50;99.90
22442;DHT22;11388;54.456;9.752;2023-07-02T11:56:02;19.40;99.90
22442;DHT22;11388;54.456;9.752;2023-07-02T13:41:53;17.70;99.90
22442;DHT22;11388;54.456;9.752;2023-07-02T13:44:27;17.90;99.90
22442;DHT22;11388;54.456;9.752;2023-07-02T15:15:43;21.00;99.90
22442;DHT22;11388;54.456;9.752;2023-07-02T15:29:17;20.20;99.90
22442;DHT22;11388;54.456;9.752;2023-07-02T15:31:43;20.30;99.90
22442;DHT22;11388;54.456;9.752;2023-07-02T15:45:32;20.20;99.90
22442;DHT22;11388;54.456;9.752;2023-07-02T15:59:07;19.80;99.90
22442;DHT22;11388;54.456;9.752;2023-07-02T17:42:15;18.40;99.90
22442;DHT22;11388;54.456;9.752;2023-07-02T17:44:47;18.20;99.90
22442;DHT22;11388;54.456;9.752;2023-07-02T17:50:25;18.90;99.90
22442;DHT22;11388;54.456;9.752;2023-07-02T17:53:00;19.00;99.90
22442;DHT22;11388;54.456;9.752;2023-07-02T17:55:37;19.20;99.90
22442;DHT22;11388;54.456;9.752;2023-07-02T17:58:03;18.90;99.90
22442;DHT22;11388;54.456;9.752;2023-07-02T18:00:34;18.60;99.90
22442;DHT22;11388;54.456;9.752;2023-07-02T18:03:02;18.40;99.90
22442;DHT22;11388;54.456;9.752;2023-07-02T18:05:31;18.50;99.90
22442;DHT22;11388;54.456;9.752;2023-07-02T18:07:57;18.40;99.90
22442;DHT22;11388;54.456;9.752;2023-07-02T18:10:27;18.50;99.90
22442;DHT22;11388;54.456;9.752;2023-07-02T18:12:53;18.30;99.90
22442;DHT22;11388;54.456;9.752;2023-07-02T18:15:18;18.10;99.90
22442;DHT22;11388;54.456;9.752;2023-07-02T18:17:44;18.00;99.90
22442;DHT22;11388;54.456;9.752;2023-07-02T18:20:11;17.70;99.90
22442;DHT22;11388;54.456;9.752;2023-07-02T18:22:36;17.70;99.90
22442;DHT22;11388;54.456;9.752;2023-07-02T18:25:02;17.50;99.90
22442;DHT22;11388;54.456;9.752;2023-07-02T18:27:28;17.60;99.90
22442;DHT22;11388;54.456;9.752;2023-07-02T18:29:54;17.50;99.90
22442;DHT22;11388;54.456;9.752;2023-07-02T18:32:19;17.50;99.90
22442;DHT22;11388;54.456;9.752;2023-07-02T18:34:45;17.50;99.90
22442;DHT22;11388;54.456;9.752;2023-07-02T18:37:12;17.30;99.90
22442;DHT22;11388;54.456;9.752;2023-07-02T18:39:40;17.30;99.90
22442;DHT22;11388;54.456;9.752;2023-07-02T18:42:09;17.10;99.90
22442;DHT22;11388;54.456;9.752;2023-07-02T18:44:36;17.10;99.90
22442;DHT22;11388;54.456;9.752;2023-07-02T18:47:15;17.10;99.90
22442;DHT22;11388;54.456;9.752;2023-07-02T18:52:53;17.00;99.90
22442;DHT22;11388;54.456;9.752;2023-07-02T18:56:03;17.00;99.90
22442;DHT22;11388;54.456;9.752;2023-07-02T18:58:32;16.90;99.90
22442;DHT22;11388;54.456;9.752;2023-07-02T19:00:59;16.90;99.90
22442;DHT22;11388;54.456;9.752;2023-07-02T19:03:33;17.10;99.90
22442;DHT22;11388;54.456;9.752;2023-07-02T19:09:57;17.10;99.90
22442;DHT22;11388;54.456;9.752;2023-07-02T19:13:15;17.00;99.90
22442;DHT22;11388;54.456;9.752;2023-07-02T19:15:53;17.00;99.90
22442;DHT22;11388;54.456;9.752;2023-07-02T19:18:22;16.90;99.90
22442;DHT22;11388;54.456;9.752;2023-07-02T19:21:00;16.90;99.90
22442;DHT22;11388;54.456;9.752;2023-07-02T19:23:55;16.80;99.90
22442;DHT22;11388;54.456;9.752;2023-07-02T19:26:47;16.90;99.90
22442;DHT22;11388;54.456;9.752;2023-07-02T19:29:20;16.80;99.90
22442;DHT22;11388;54.456;9.752;2023-07-02T19:31:57;16.80;99.90
22442;DHT22;11388;54.456;9.752;2023-07-02T19:34:28;16.80;99.90
22442;DHT22;11388;54.456;9.752;2023-07-02T19:37:12;16.80;99.90
22442;DHT22;11388;54.456;9.752;2023-07-02T19:42:20;16.90;99.90
22442;DHT22;11388;54.456;9.752;2023-07-02T19:44:45;16.80;99.90
22442;DHT22;11388;54.456;9.752;2023-07-02T19:47:11;16.80;99.90
22442;DHT22;11388;54.456;9.752;2023-07-02T19:56:21;16.80;99.90
22442;DHT22;11388;54.456;9.752;2023-07-02T19:58:48;16.60;99.90
22442;DHT22;11388;54.456;9.752;2023-07-02T20:01:14;16.40;99.90
22442;DHT22;11388;54.456;9.752;2023-07-02T20:03:55;16.30;99.90
22442;DHT22;11388;54.456;9.752;2023-07-02T20:06:21;16.30;99.90
22442;DHT22;11388;54.456;9.752;2023-07-02T20:08:48;16.30;99.90
22442;DHT22;11388;54.456;9.752;2023-07-02T20:11:14;16.20;99.90
22442;DHT22;11388;54.456;9.752;2023-07-02T20:13:40;16.30;99.90
22442;DHT22;11388;54.456;9.752;2023-07-02T20:16:10;16.30;99.90
22442;DHT22;11388;54.456;9.752;2023-07-02T20:18:36;16.30;99.90
22442;DHT22;11388;54.456;9.752;2023-07-02T20:21:06;16.30;99.90
22442;DHT22;11388;54.456;9.752;2023-07-02T20:23:33;16.20;99.90
22442;DHT22;11388;54.456;9.752;2023-07-02T20:26:00;16.20;99.90
22442;DHT22;11388;54.456;9.752;2023-07-02T20:28:26;16.20;99.90
22442;DHT22;11388;54.456;9.752;2023-07-02T20:30:52;16.20;99.90
22442;DHT22;11388;54.456;9.752;2023-07-02T20:33:17;16.30;99.90
22442;DHT22;11388;54.456;9.752;2023-07-02T20:35:43;16.30;99.90
22442;DHT22;11388;54.456;9.752;2023-07-02T20:38:10;16.30;99.90
22442;DHT22;11388;54.456;9.752;2023-07-02T20:40:38;16.30;99.90
22442;DHT22;11388;54.456;9.752;2023-07-02T20:43:04;16.20;99.90
22442;DHT22;11388;54.456;9.752;2023-07-02T20:45:31;16.30;99.90
22442;DHT22;11388;54.456;9.752;2023-07-02T20:47:57;16.30;99.90
22442;DHT22;11388;54.456;9.752;2023-07-02T20:50:28;16.20;99.90
22442;DHT22;11388;54.456;9.752;2023-07-02T20:52:54;16.10;99.90
22442;DHT22;11388;54.456;9.752;2023-07-02T20:55:22;16.20;99.90
22442;DHT22;11388;54.456;9.752;2023-07-02T20:57:48;16.10;99.90
22442;DHT22;11388;54.456;9.752;2023-07-02T21:00:14;16.10;99.90
22442;DHT22;11388;54.456;9.752;2023-07-02T21:02:41;16.20;99.90
22442;DHT22;11388;54.456;9.752;2023-07-02T21:05:08;16.10;99.90
22442;DHT22;11388;54.456;9.752;2023-07-02T21:07:35;16.00;99.90
22442;DHT22;11388;54.456;9.752;2023-07-02T21:10:01;16.00;99.90
22442;DHT22;11388;54.456;9.752;2023-07-02T21:12:27;15.90;99.90
22442;DHT22;11388;54.456;9.752;2023-07-02T21:14:53;15.80;99.90
22442;DHT22;11388;54.456;9.752;2023-07-02T21:17:20;15.50;99.90
22442;DHT22;11388;54.456;9.752;2023-07-02T21:19:46;15.50;99.90
22442;DHT22;11388;54.456;9.752;2023-07-02T21:22:12;15.50;99.90
22442;DHT22;11388;54.456;9.752;2023-07-02T21:24:38;15.30;99.90
22442;DHT22;11388;54.456;9.752;2023-07-02T21:27:04;15.20;99.90
22442;DHT22;11388;54.456;9.752;2023-07-02T21:29:29;15.10;99.90
22442;DHT22;11388;54.456;9.752;2023-07-02T21:31:55;15.10;99.90
22442;DHT22;11388;54.456;9.752;2023-07-02T21:34:21;15.00;99.90
22442;DHT22;11388;54.456;9.752;2023-07-02T21:36:47;15.00;99.90
22442;DHT22;11388;54.456;9.752;2023-07-02T21:39:13;15.10;99.90
22442;DHT22;11388;54.456;9.752;2023-07-02T21:41:39;15.00;99.90
22442;DHT22;11388;54.456;9.752;2023-07-02T21:44:06;14.70;99.90
22442;DHT22;11388;54.456;9.752;2023-07-02T21:46:32;14.20;99.90
22442;DHT22;11388;54.456;9.752;2023-07-02T21:48:58;13.90;99.90
22442;DHT22;11388;54.456;9.752;2023-07-02T21:51:23;13.70;99.90
22442;DHT22;11388;54.456;9.752;2023-07-02T21:53:54;13.60;99.90
22442;DHT22;11388;54.456;9.752;2023-07-02T21:56:20;13.50;99.90
22442;DHT22;11388;54.456;9.752;2023-07-02T21:58:47;13.50;99.90
22442;DHT22;11388;54.456;9.752;2023-07-02T22:01:16;13.60;99.90
22442;DHT22;11388;54.456;9.752;2023-07-02T22:03:42;13.60;99.90
22442;DHT22;11388;54.456;9.752;2023-07-02T22:06:07;13.70;99.90
22442;DHT22;11388;54.456;9.752;2023-07-02T22:08:34;13.80;99.90
22442;DHT22;11388;54.456;9.752;2023-07-02T22:10:59;13.90;99.90
22442;DHT22;11388;54.456;9.752;2023-07-02T22:13:25;13.90;99.90
22442;DHT22;11388;54.456;9.752;2023-07-02T22:15:51;14.00;99.90
22442;DHT22;11388;54.456;9.752;2023-07-02T22:18:17;14.10;99.90
22442;DHT22;11388;54.456;9.752;2023-07-02T22:20:43;14.10;99.90
22442;DHT22;11388;54.456;9.752;2023-07-02T22:23:11;14.20;99.90
22442;DHT22;11388;54.456;9.752;2023-07-02T22:25:42;14.20;99.90
22442;DHT22;11388;54.456;9.752;2023-07-02T22:28:10;14.20;99.90
22442;DHT22;11388;54.456;9.752;2023-07-02T22:30:36;14.30;99.90
22442;DHT22;11388;54.456;9.752;2023-07-02T22:33:02;14.30;99.90
22442;DHT22;11388;54.456;9.752;2023-07-02T22:35:28;14.30;99.90
22442;DHT22;11388;54.456;9.752;2023-07-02T22:38:01;14.30;99.90
22442;DHT22;11388;54.456;9.752;2023-07-02T22:40:40;14.30;99.90
22442;DHT22;11388;54.456;9.752;2023-07-02T22:43:05;14.40;99.90
22442;DHT22;11388;54.456;9.752;2023-07-02T22:45:31;14.40;99.90
22442;DHT22;11388;54.456;9.752;2023-07-02T22:47:57;14.40;99.90
22442;DHT22;11388;54.456;9.752;2023-07-02T22:50:26;14.40;99.90
22442;DHT22;11388;54.456;9.752;2023-07-02T22:52:53;14.40;99.90
22442;DHT22;11388;54.456;9.752;2023-07-02T22:55:19;14.40;99.90
22442;DHT22;11388;54.456;9.752;2023-07-02T22:57:44;14.40;99.90
22442;DHT22;11388;54.456;9.752;2023-07-02T23:00:15;14.50;99.90
22442;DHT22;11388;54.456;9.752;2023-07-02T23:02:43;14.50;99.90
22442;DHT22;11388;54.456;9.752;2023-07-02T23:05:16;14.50;99.90
22442;DHT22;11388;54.456;9.752;2023-07-02T23:07:42;14.50;99.90
22442;DHT22;11388;54.456;9.752;2023-07-02T23:10:11;14.50;99.90
22442;DHT22;11388;54.456;9.752;2023-07-02T23:12:40;14.50;99.90
22442;DHT22;11388;54.456;9.752;2023-07-02T23:15:08;14.50;99.90
22442;DHT22;11388;54.456;9.752;2023-07-02T23:17:40;14.60;99.90
22442;DHT22;11388;54.456;9.752;2023-07-02T23:20:06;14.60;99.90
22442;DHT22;11388;54.456;9.752;2023-07-02T23:22:32;14.60;99.90
22442;DHT22;11388;54.456;9.752;2023-07-02T23:25:01;14.60;99.90
22442;DHT22;11388;54.456;9.752;2023-07-02T23:27:33;14.60;99.90
22442;DHT22;11388;54.456;9.752;2023-07-02T23:30:06;14.60;99.90
22442;DHT22;11388;54.456;9.752;2023-07-02T23:32:32;14.60;99.90
22442;DHT22;11388;54.456;9.752;2023-07-02T23:34:58;14.60;99.90
22442;DHT22;11388;54.456;9.752;2023-07-02T23:37:26;14.50;99.90
22442;DHT22;11388;54.456;9.752;2023-07-02T23:39:53;14.50;99.90
22442;DHT22;11388;54.456;9.752;2023-07-02T23:42:19;14.50;99.90
22442;DHT22;11388;54.456;9.752;2023-07-02T23:44:44;14.50;99.90
22442;DHT22;11388;54.456;9.752;2023-07-02T23:47:10;14.50;99.90
22442;DHT22;11388;54.456;9.752;2023-07-02T23:49:36;14.60;99.90
22442;DHT22;11388;54.456;9.752;2023-07-02T23:52:01;14.70;99.90
22442;DHT22;11388;54.456;9.752;2023-07-02T23:54:27;14.70;99.90
22442;DHT22;11388;54.456;9.752;2023-07-02T23:56:53;14.70;99.90
22442;DHT22;11388;54.456;9.752;2023-07-02T23:59:19;14.70;99.90
